Time;durP1;ratioP1;P1;durP2;ratioP2;P2;SDS_P1;SDS_P2;PMS_P1;PMS_P2;Temp;Humidity;BMP_temperature;BMP_pressure;BME280_temperature;BME280_humidity;BME280_pressure;Samples;Min_cycle;Max_cycle;Signal;HPM_P1;HPM_P2
2022/11/22 00:01:00;;;;;;;24.13;10.85;;;;;;;-2.78;57.27;99597.94;5008341;28;20306;-70
2022/11/22 00:03:25;;;;;;;31.52;11.85;;;;;;;-2.71;57.11;99598.75;4993095;28;20064;-70
2022/11/22 00:05:53;;;;;;;32.53;12.43;;;;;;;-2.49;56.63;99594.34;5006075;28;20497;-72
2022/11/22 00:08:19;;;;;;;30.85;12.40;;;;;;;-2.48;56.88;99593.50;4993521;28;20080;-69
2022/11/22 00:10:44;;;;;;;33.95;12.63;;;;;;;-2.25;56.42;99586.47;4990950;28;20040;-69
2022/11/22 00:13:09;;;;;;;32.08;12.20;;;;;;;-2.45;56.86;99590.91;5006403;28;20068;-69
2022/11/22 00:15:35;;;;;;;29.73;11.00;;;;;;;-2.23;56.16;99581.34;4989318;28;20079;-69
2022/11/22 00:18:01;;;;;;;33.75;11.70;;;;;;;-2.14;56.22;99586.41;4990295;28;20047;-69
2022/11/22 00:20:26;;;;;;;31.90;10.60;;;;;;;-2.11;55.96;99580.41;4987252;28;20160;-71
2022/11/22 00:22:52;;;;;;;25.98;11.52;;;;;;;-2.14;56.10;99575.31;5002499;28;20177;-71
2022/11/22 00:25:21;;;;;;;29.65;10.95;;;;;;;-2.12;56.30;99568.47;4990084;28;20152;-71
2022/11/22 00:27:47;;;;;;;37.45;12.77;;;;;;;-2.08;56.18;99565.03;4993646;28;20045;-71
2022/11/22 00:30:12;;;;;;;29.42;12.23;;;;;;;-2.11;56.36;99559.91;5004581;28;20038;-71
2022/11/22 00:32:38;;;;;;;31.38;11.98;;;;;;;-2.11;56.96;99555.66;4989971;28;20102;-71
2022/11/22 00:35:04;;;;;;;28.92;12.07;;;;;;;-2.16;57.00;99548.88;5008576;28;20291;-69
2022/11/22 00:37:30;;;;;;;42.60;13.20;;;;;;;-2.04;56.86;99547.06;5000888;28;20064;-70
2022/11/22 00:39:55;;;;;;;38.97;14.98;;;;;;;-1.80;56.15;99545.97;4975628;28;21437;-69
2022/11/22 00:42:26;;;;;;;36.13;13.05;;;;;;;-1.87;56.44;99544.31;5007059;28;20046;-70
2022/11/22 00:44:51;;;;;;;36.40;13.68;;;;;;;-1.89;56.68;99535.81;4967237;28;20171;-70
2022/11/22 00:47:17;;;;;;;30.88;12.82;;;;;;;-1.89;56.91;99535.81;4974497;28;20103;-70
2022/11/22 00:49:42;;;;;;;38.10;13.32;;;;;;;-1.77;56.69;99541.69;4976937;28;20045;-70
2022/11/22 00:52:08;;;;;;;41.35;14.25;;;;;;;-1.61;56.37;99525.28;4989966;28;20837;-71
2022/11/22 00:54:33;;;;;;;34.90;13.48;;;;;;;-1.71;56.85;99518.53;4991989;28;20141;-71
2022/11/22 00:56:59;;;;;;;33.65;12.30;;;;;;;-1.76;57.07;99516.03;4987625;28;20025;-71
2022/11/22 00:59:29;;;;;;;38.25;14.10;;;;;;;-1.73;57.09;99507.47;5007774;28;20029;-71
2022/11/22 01:01:54;;;;;;;37.55;12.38;;;;;;;-1.77;57.76;99495.59;4986470;28;20361;-72
2022/11/22 01:04:20;;;;;;;34.75;12.98;;;;;;;-1.83;57.71;99499.03;5005363;28;20498;-72
2022/11/22 01:06:45;;;;;;;36.03;13.57;;;;;;;-1.76;57.76;99500.66;4989705;28;20730;-72
2022/11/22 01:09:16;;;;;;;38.38;13.02;;;;;;;-1.52;57.45;99516.63;4995219;28;20036;-73
2022/11/22 01:11:43;;;;;;;23.77;8.40;;;;;;;-1.42;57.04;99500.25;4989280;28;20032;-71
2022/11/22 01:14:08;;;;;;;38.08;11.90;;;;;;;-1.42;57.10;99495.13;5007034;28;20309;-70
2022/11/22 01:16:34;;;;;;;34.15;12.63;;;;;;;-1.48;57.58;99490.09;5004559;28;20734;-71
2022/11/22 01:18:59;;;;;;;33.97;12.98;;;;;;;-1.41;57.34;99495.13;4987576;28;20037;-70
2022/11/22 01:21:25;;;;;;;28.02;11.45;;;;;;;-1.38;57.34;99495.06;5002665;28;20199;-70
2022/11/22 01:23:50;;;;;;;30.40;12.07;;;;;;;-1.48;57.58;99501.19;5003300;28;20061;-70
2022/11/22 01:26:16;;;;;;;32.05;11.93;;;;;;;-1.44;57.30;99497.72;5004156;28;20748;-71
2022/11/22 01:28:42;;;;;;;29.00;10.32;;;;;;;-1.20;56.79;99493.13;4989787;28;20129;-70
2022/11/22 01:31:08;;;;;;;25.73;11.65;;;;;;;-1.19;56.66;99492.28;5004916;28;20112;-70
2022/11/22 01:33:33;;;;;;;26.80;10.77;;;;;;;-1.54;57.62;99490.19;4990090;28;20072;-70
2022/11/22 01:36:01;;;;;;;25.17;10.93;;;;;;;-1.50;57.40;99497.81;5000219;28;20577;-69
2022/11/22 01:38:27;;;;;;;23.20;10.68;;;;;;;-1.52;57.59;99483.31;5006688;28;20041;-70
2022/11/22 01:40:53;;;;;;;23.05;9.90;;;;;;;-1.70;57.90;99486.94;4989224;28;20071;-67
2022/11/22 01:43:24;;;;;;;26.25;9.77;;;;;;;-1.49;56.89;99489.25;5003367;28;20078;-69
2022/11/22 01:45:55;;;;;;;22.25;9.48;;;;;;;-1.83;57.69;99484.50;4974314;28;20042;-69
2022/11/22 01:48:44;;;;;;;27.02;10.35;;;;;;;-1.72;57.26;99475.88;4985285;28;20028;-71
2022/11/22 01:51:33;;;;;;;24.13;9.45;;;;;;;-1.64;56.95;99469.78;5005182;28;20825;-73
2022/11/22 01:54:04;;;;;;;21.13;9.35;;;;;;;-1.41;56.18;99468.66;5005331;28;20048;-71
2022/11/22 01:56:29;;;;;;;15.32;8.07;;;;;;;-1.55;56.85;99463.72;4988928;28;20081;-71
2022/11/22 01:59:00;;;;;;;19.23;9.00;;;;;;;-1.46;56.37;99463.59;5004554;28;20550;-71
2022/11/22 02:01:27;;;;;;;23.75;10.18;;;;;;;-1.31;55.60;99462.50;5004522;28;20103;-73
2022/11/22 02:03:57;;;;;;;20.77;8.55;;;;;;;-1.76;56.61;99469.09;5004544;28;20485;-70
2022/11/22 02:06:30;;;;;;;17.70;7.43;;;;;;;-2.31;57.93;99465.38;5005344;28;20513;-70
2022/11/22 02:09:10;;;;;;;19.85;7.85;;;;;;;-1.63;56.53;99461.22;4988627;28;20482;-70
2022/11/22 02:11:40;;;;;;;22.52;9.50;;;;;;;-1.46;55.99;99453.34;4992043;28;20128;-71
2022/11/22 02:14:10;;;;;;;18.27;7.88;;;;;;;-1.38;55.62;99456.63;4992807;28;20041;-70
2022/11/22 02:16:38;;;;;;;22.90;8.85;;;;;;;-1.71;56.48;99452.81;4989183;28;20247;-71
2022/11/22 02:19:09;;;;;;;25.27;9.55;;;;;;;-1.55;56.35;99466.28;4987463;28;20033;-72
2022/11/22 02:21:35;;;;;;;23.27;8.27;;;;;;;-1.48;56.13;99462.75;4985897;28;20049;-72
2022/11/22 02:24:10;;;;;;;21.20;9.93;;;;;;;-1.63;56.51;99461.22;4990016;28;20045;-71
2022/11/22 02:26:36;;;;;;;19.10;8.60;;;;;;;-1.68;56.46;99452.75;5000004;28;20719;-70
2022/11/22 02:29:06;;;;;;;18.75;8.13;;;;;;;-1.60;56.37;99453.53;4971510;28;20045;-71
2022/11/22 02:31:43;;;;;;;21.58;8.10;;;;;;;-1.37;55.86;99447.25;4988570;28;20351;-71
2022/11/22 02:34:10;;;;;;;21.77;9.68;;;;;;;-1.45;55.50;99443.94;5003716;28;20077;-70
2022/11/22 02:36:44;;;;;;;22.10;8.50;;;;;;;-1.83;56.71;99430.72;5004260;28;20541;-71
2022/11/22 02:39:13;;;;;;;20.30;9.40;;;;;;;-1.62;56.19;99431.31;4986009;28;20702;-70
2022/11/22 02:41:39;;;;;;;15.07;7.82;;;;;;;-1.65;56.59;99429.66;5000412;28;20033;-71
2022/11/22 02:44:06;;;;;;;16.90;6.82;;;;;;;-1.50;55.87;99420.94;4987176;28;20061;-71
2022/11/22 02:46:32;;;;;;;17.67;7.93;;;;;;;-1.83;56.77;99423.03;4991559;28;20408;-71
2022/11/22 02:48:57;;;;;;;19.33;9.80;;;;;;;-1.66;56.45;99417.72;5007956;28;20278;-75
2022/11/22 02:51:24;;;;;;;17.77;7.22;;;;;;;-1.36;55.94;99425.84;4995441;28;20048;-71
2022/11/22 02:53:51;;;;;;;16.00;7.35;;;;;;;-1.58;56.22;99422.72;5006630;28;20482;-71
2022/11/22 02:56:16;;;;;;;15.77;8.02;;;;;;;-1.73;56.65;99417.81;5006270;28;20049;-71
2022/11/22 02:58:43;;;;;;;21.90;9.10;;;;;;;-1.54;56.19;99424.41;5002762;28;20901;-71
2022/11/22 03:01:09;;;;;;;18.42;9.15;;;;;;;-1.42;56.22;99418.25;5007082;28;20038;-71
2022/11/22 03:03:34;;;;;;;16.83;8.57;;;;;;;-1.43;55.76;99427.66;4990855;28;20527;-71
2022/11/22 03:06:01;;;;;;;22.10;8.70;;;;;;;-1.51;56.20;99420.94;4989727;28;20179;-70
2022/11/22 03:08:27;;;;;;;17.27;8.55;;;;;;;-1.89;57.08;99418.03;4980518;28;20041;-71
2022/11/22 03:10:52;;;;;;;19.20;8.23;;;;;;;-1.63;56.50;99409.97;5002344;28;20614;-73
2022/11/22 03:13:18;;;;;;;20.17;8.55;;;;;;;-1.67;56.45;99422.84;4980655;28;20136;-71
2022/11/22 03:15:46;;;;;;;22.10;8.57;;;;;;;-1.69;56.46;99415.19;5008486;28;20045;-71
2022/11/22 03:18:12;;;;;;;22.67;8.60;;;;;;;-1.66;56.45;99411.75;5007401;28;20045;-71
2022/11/22 03:20:38;;;;;;;24.17;10.85;;;;;;;-2.05;57.85;99419.03;5001203;28;20670;-71
2022/11/22 03:23:06;;;;;;;21.55;9.18;;;;;;;-1.48;56.35;99415.78;4973791;28;20833;-71
2022/11/22 03:25:32;;;;;;;23.50;9.40;;;;;;;-1.37;55.59;99426.75;5005956;28;20370;-71
2022/11/22 03:27:58;;;;;;;22.70;10.73;;;;;;;-1.74;57.05;99426.38;5004091;28;20041;-72
2022/11/22 03:30:23;;;;;;;21.77;9.90;;;;;;;-1.48;56.18;99416.63;5008266;28;20042;-72
2022/11/22 03:32:51;;;;;;;19.45;8.73;;;;;;;-1.50;55.96;99420.94;4992022;28;20047;-72
2022/11/22 03:35:16;;;;;;;20.85;9.88;;;;;;;-1.53;55.98;99420.97;4985835;28;20049;-72
2022/11/22 03:37:42;;;;;;;20.42;9.60;;;;;;;-1.75;56.54;99409.31;4993790;28;20254;-70
2022/11/22 03:40:08;;;;;;;23.17;10.07;;;;;;;-1.56;56.50;99418.44;4994967;28;20616;-71
2022/11/22 03:42:36;;;;;;;21.77;9.88;;;;;;;-1.72;56.68;99420.34;4988850;28;20537;-71
2022/11/22 03:45:04;;;;;;;23.00;10.40;;;;;;;-1.84;57.57;99420.53;4990862;28;20046;-71
2022/11/22 03:47:29;;;;;;;22.02;8.73;;;;;;;-2.32;58.44;99421.03;5004202;28;20107;-72
2022/11/22 03:49:55;;;;;;;28.77;9.70;;;;;;;-1.81;57.39;99416.19;4993109;28;20045;-71
2022/11/22 03:52:20;;;;;;;28.88;10.27;;;;;;;-1.87;57.41;99411.13;4990591;28;20052;-72
2022/11/22 03:54:45;;;;;;;28.85;9.35;;;;;;;-1.67;57.21;99403.19;5004742;28;20029;-70
2022/11/22 03:57:11;;;;;;;23.48;11.25;;;;;;;-1.86;57.99;99391.53;4991252;28;20041;-72
2022/11/22 03:59:36;;;;;;;24.38;8.73;;;;;;;-1.54;57.02;99401.34;5006206;28;20606;-73
2022/11/22 04:02:02;;;;;;;29.80;11.05;;;;;;;-1.65;57.37;99406.59;5004865;28;20366;-68
2022/11/22 04:04:27;;;;;;;24.90;9.43;;;;;;;-1.67;57.67;99403.19;5005191;28;20423;-68
2022/11/22 04:06:53;;;;;;;27.67;10.50;;;;;;;-1.85;58.03;99413.69;5003348;28;20037;-67
2022/11/22 04:09:18;;;;;;;27.67;12.00;;;;;;;-1.70;57.99;99412.66;5006654;28;20088;-68
2022/11/22 04:11:43;;;;;;;31.85;10.88;;;;;;;-1.54;57.91;99409.00;5005365;28;20691;-67
2022/11/22 04:16:56;;;;;;;32.30;9.70;;;;;;;-1.80;58.60;99407.66;5007818;28;20079;-70
2022/11/22 04:19:24;;;;;;;27.90;10.32;;;;;;;-1.67;58.16;99410.88;4993918;28;20125;-71
2022/11/22 04:21:49;;;;;;;28.60;11.02;;;;;;;-1.69;58.39;99409.22;5002976;28;20037;-68
2022/11/22 04:26:59;;;;;;;24.95;10.52;;;;;;;-1.58;58.40;99397.13;4987945;28;20040;-67
2022/11/22 04:29:24;;;;;;;25.45;11.25;;;;;;;-1.76;58.88;99402.47;5005635;28;20041;-68
2022/11/22 04:34:36;;;;;;;29.27;9.65;;;;;;;-1.59;58.56;99403.97;5003802;28;20048;-69
2022/11/22 04:37:02;;;;;;;30.60;10.43;;;;;;;-1.70;59.07;99407.53;5006409;28;20046;-67
2022/11/22 04:39:28;;;;;;;29.45;12.20;;;;;;;-1.67;58.73;99407.47;4988096;28;20033;-68
2022/11/22 04:44:44;;;;;;;31.27;10.63;;;;;;;-1.69;59.42;99399.81;5006854;28;20025;-73
2022/11/22 04:52:52;;;;;;;32.10;10.55;;;;;;;-1.73;59.79;99398.19;4990241;28;20095;-73
2022/11/22 04:52:56;;;;;;;31.38;10.90;;;;;;;-1.62;59.31;99400.56;4988013;28;20046;-73
2022/11/22 04:55:22;;;;;;;30.85;11.65;;;;;;;-1.42;59.18;99403.75;4988161;28;20104;-70
2022/11/22 04:57:48;;;;;;;34.40;11.50;;;;;;;-1.60;59.49;99398.84;4988134;28;20132;-72
2022/11/22 05:00:14;;;;;;;35.47;10.57;;;;;;;-1.55;59.35;99397.09;4997721;28;20029;-74
2022/11/22 05:02:42;;;;;;;44.13;12.13;;;;;;;-1.28;58.74;99398.41;4992400;28;20052;-74
2022/11/22 05:05:08;;;;;;;35.00;11.00;;;;;;;-1.40;59.05;99411.38;4988959;28;20034;-75
2022/11/22 05:07:33;;;;;;;27.98;11.13;;;;;;;-1.49;59.57;99409.78;4975983;28;20183;-76
2022/11/22 05:09:59;;;;;;;33.40;11.27;;;;;;;-1.44;59.48;99413.16;4979548;28;20059;-73
2022/11/22 05:12:24;;;;;;;30.33;13.27;;;;;;;-1.74;60.35;99411.00;5003268;28;20075;-73
2022/11/22 05:14:50;;;;;;;36.97;10.82;;;;;;;-1.66;60.30;99414.31;5005560;28;20056;-73
2022/11/22 05:17:15;;;;;;;24.90;9.88;;;;;;;-1.53;60.16;99420.09;4981596;28;20052;-73
2022/11/22 05:19:41;;;;;;;28.08;11.30;;;;;;;-1.59;60.42;99421.91;5004711;28;20056;-74
2022/11/22 05:22:09;;;;;;;29.90;10.55;;;;;;;-1.40;59.74;99431.88;4992866;28;20038;-73
2022/11/22 05:24:35;;;;;;;36.42;12.05;;;;;;;-1.31;59.49;99425.78;4991665;28;20132;-73
2022/11/22 05:27:00;;;;;;;40.00;12.93;;;;;;;-1.20;59.11;99439.28;4976211;28;20031;-73
2022/11/22 05:29:26;;;;;;;38.65;12.15;;;;;;;-1.62;60.14;99433.88;4990043;28;20044;-73
2022/11/22 05:31:51;;;;;;;28.63;11.15;;;;;;;-1.29;59.85;99436.88;4975960;28;20497;-69
2022/11/22 05:34:17;;;;;;;31.27;11.02;;;;;;;-1.52;60.02;99432.91;4987621;28;20435;-71
2022/11/22 05:36:42;;;;;;;30.15;11.13;;;;;;;-1.15;59.46;99424.72;4987082;28;20053;-71
2022/11/22 05:39:08;;;;;;;42.67;12.90;;;;;;;-1.36;60.14;99427.56;4993504;28;20041;-71
2022/11/22 05:41:34;;;;;;;28.70;10.73;;;;;;;-1.14;59.49;99418.69;5006660;28;20323;-73
2022/11/22 05:43:59;;;;;;;33.63;12.10;;;;;;;-1.28;59.77;99415.50;5000960;28;20560;-71
2022/11/22 05:46:28;;;;;;;41.35;12.38;;;;;;;-1.37;60.24;99419.06;4990538;28;20554;-71
2022/11/22 05:48:55;;;;;;;39.80;14.52;;;;;;;-1.33;59.98;99433.53;4986245;28;20045;-71
2022/11/22 05:51:26;;;;;;;28.23;11.65;;;;;;;-1.20;59.63;99429.03;4990291;28;20037;-72
2022/11/22 05:53:51;;;;;;;29.02;12.35;;;;;;;-1.38;60.29;99430.16;4985261;28;20041;-71
2022/11/22 05:56:20;;;;;;;35.65;12.90;;;;;;;-1.20;59.93;99434.16;4989475;28;20402;-72
2022/11/22 05:58:52;;;;;;;41.28;14.02;;;;;;;-1.50;60.59;99436.31;4989943;28;20726;-71
2022/11/22 06:01:25;;;;;;;35.22;13.88;;;;;;;-1.09;59.50;99427.16;5004194;28;20037;-72
2022/11/22 06:03:51;;;;;;;32.03;13.23;;;;;;;-0.93;59.20;99438.06;4990920;28;20038;-71
2022/11/22 06:06:19;;;;;;;32.20;11.75;;;;;;;-1.02;59.23;99431.38;4989789;28;20040;-71
2022/11/22 06:08:47;;;;;;;35.08;11.43;;;;;;;-0.83;58.73;99436.22;4978896;28;20082;-72
2022/11/22 06:11:22;;;;;;;31.13;13.35;;;;;;;-1.50;60.30;99438.88;5004672;28;20033;-74
2022/11/22 06:13:53;;;;;;;39.20;12.05;;;;;;;-0.85;59.24;99435.41;4984994;28;20079;-68
2022/11/22 06:16:21;;;;;;;33.83;13.18;;;;;;;-0.97;59.12;99432.16;4990112;28;20726;-67
2022/11/22 06:18:47;;;;;;;33.10;12.93;;;;;;;-1.01;59.44;99433.06;5000943;28;20589;-68
2022/11/22 06:21:18;;;;;;;33.28;12.52;;;;;;;-0.93;59.04;99432.09;5002116;28;20125;-67
2022/11/22 06:23:44;;;;;;;33.40;11.77;;;;;;;-0.78;58.87;99436.97;4998633;28;20053;-70
2022/11/22 06:26:15;;;;;;;34.88;12.45;;;;;;;-0.87;59.18;99439.69;5003325;28;20037;-70
2022/11/22 06:28:41;;;;;;;36.63;13.63;;;;;;;-0.86;59.09;99436.25;4990286;28;20118;-72
2022/11/22 06:31:10;;;;;;;37.85;13.52;;;;;;;-0.74;59.10;99430.09;5003744;28;20045;-70
2022/11/22 06:33:35;;;;;;;41.97;13.15;;;;;;;-0.88;59.20;99440.59;4999697;28;20466;-71
2022/11/22 06:36:08;;;;;;;31.67;12.63;;;;;;;-0.47;58.39;99436.47;5005685;28;20120;-72
2022/11/22 06:38:34;;;;;;;39.92;13.77;;;;;;;-0.54;58.34;99424.63;5000509;28;20042;-68
2022/11/22 06:41:15;;;;;;;33.88;14.13;;;;;;;-0.47;58.22;99421.91;4987316;28;20060;-68
2022/11/22 06:43:42;;;;;;;32.28;12.38;;;;;;;-0.83;58.89;99429.38;4985768;28;20387;-68
2022/11/22 06:46:10;;;;;;;38.42;14.57;;;;;;;-0.83;58.80;99429.38;4981927;28;20033;-68
2022/11/22 06:48:37;;;;;;;28.17;11.57;;;;;;;-1.08;59.52;99428.03;4988581;28;20375;-68
2022/11/22 06:51:06;;;;;;;35.17;12.80;;;;;;;-0.67;59.03;99424.81;4997239;28;20049;-67
2022/11/22 06:53:34;;;;;;;36.78;14.00;;;;;;;-0.67;58.93;99422.25;5002372;28;20042;-72
2022/11/22 06:56:06;;;;;;;47.80;14.15;;;;;;;-0.75;59.25;99424.09;5003456;28;20115;-72
2022/11/22 06:58:32;;;;;;;39.15;13.95;;;;;;;-0.68;59.15;99428.28;4986979;28;20281;-72
2022/11/22 07:01:05;;;;;;;35.97;12.88;;;;;;;-0.69;58.90;99436.81;4986824;28;20025;-71
2022/11/22 07:03:34;;;;;;;30.33;11.57;;;;;;;-0.58;58.65;99434.94;4985448;28;20034;-72
2022/11/22 07:06:00;;;;;;;36.42;12.38;;;;;;;-0.63;58.87;99434.16;4989121;28;20037;-73
2022/11/22 07:08:25;;;;;;;35.10;12.32;;;;;;;-0.55;58.75;99434.03;4990616;28;20175;-70
2022/11/22 07:10:51;;;;;;;35.88;12.98;;;;;;;-0.51;58.61;99439.97;4999517;28;20056;-69
2022/11/22 07:13:17;;;;;;;31.48;13.18;;;;;;;-0.58;58.96;99440.06;4992195;28;20042;-71
2022/11/22 07:15:43;;;;;;;33.10;14.25;;;;;;;-0.56;58.97;99445.19;4985978;28;20402;-71
2022/11/22 07:18:08;;;;;;;34.45;14.40;;;;;;;-0.38;58.65;99446.56;4986105;28;20026;-72
2022/11/22 07:20:34;;;;;;;32.35;12.00;;;;;;;-0.07;57.42;99448.59;4998940;28;20742;-73
2022/11/22 07:22:59;;;;;;;27.67;11.90;;;;;;;-0.36;58.42;99444.84;4982830;28;20070;-72
2022/11/22 07:25:25;;;;;;;31.25;15.43;;;;;;;-0.48;58.87;99445.03;4981394;28;20411;-72
2022/11/22 07:27:51;;;;;;;30.98;13.43;;;;;;;-0.35;58.79;99456.78;4967420;28;20074;-72
2022/11/22 07:30:17;;;;;;;31.40;13.57;;;;;;;-0.30;58.55;99454.13;4988330;28;20034;-72
2022/11/22 07:32:47;;;;;;;32.65;12.35;;;;;;;-0.56;59.21;99456.28;4981693;28;20503;-73
2022/11/22 07:35:12;;;;;;;31.23;12.23;;;;;;;-0.28;58.84;99453.25;4999343;28;20034;-71
2022/11/22 07:37:38;;;;;;;32.35;12.75;;;;;;;-0.40;59.53;99456.03;4987368;28;20458;-65
2022/11/22 07:40:06;;;;;;;36.75;12.02;;;;;;;-0.13;58.21;99452.94;4990793;28;20051;-65
2022/11/22 07:42:31;;;;;;;29.30;12.18;;;;;;;-0.23;58.58;99466.00;4998756;28;20440;-69
2022/11/22 07:44:57;;;;;;;33.25;13.02;;;;;;;-0.34;58.81;99461.06;4989369;28;20061;-72
2022/11/22 07:47:24;;;;;;;36.47;13.25;;;;;;;-0.25;58.90;99458.31;4994258;28;20438;-71
2022/11/22 07:49:49;;;;;;;33.30;13.57;;;;;;;-0.26;59.16;99458.34;4988697;28;20044;-70
2022/11/22 07:52:14;;;;;;;31.73;12.98;;;;;;;-0.40;59.13;99464.56;4991776;28;20576;-70
2022/11/22 07:54:40;;;;;;;33.60;13.73;;;;;;;-0.36;59.17;99455.09;4984095;28;20037;-70
2022/11/22 07:57:05;;;;;;;30.50;11.88;;;;;;;-0.45;59.30;99460.41;4987421;28;20492;-69
2022/11/22 07:59:31;;;;;;;33.85;12.10;;;;;;;-0.23;58.49;99461.72;4983990;28;20414;-70
2022/11/22 08:01:56;;;;;;;30.45;13.07;;;;;;;-0.08;58.52;99462.28;4983760;28;20379;-69
2022/11/22 08:04:22;;;;;;;25.70;12.43;;;;;;;-0.33;58.85;99449.91;4985257;28;20194;-69
2022/11/22 08:06:47;;;;;;;35.35;14.60;;;;;;;-0.24;58.82;99451.47;4988584;28;20033;-69
2022/11/22 08:09:13;;;;;;;33.53;14.10;;;;;;;-0.40;59.32;99454.28;4988133;28;20034;-71
2022/11/22 08:11:41;;;;;;;35.40;13.85;;;;;;;-0.33;59.23;99452.47;4983677;28;20112;-71
2022/11/22 08:14:06;;;;;;;27.52;12.52;;;;;;;-0.19;58.78;99465.91;5001763;28;20341;-69
2022/11/22 08:16:32;;;;;;;32.75;11.63;;;;;;;-0.28;59.32;99453.25;4984467;28;20165;-70
2022/11/22 08:18:57;;;;;;;35.03;13.15;;;;;;;-0.25;59.09;99463.47;5000958;28;20037;-70
2022/11/22 08:21:22;;;;;;;34.92;13.40;;;;;;;-0.63;60.23;99472.66;4971964;28;20407;-71
2022/11/22 08:23:48;;;;;;;31.50;13.10;;;;;;;-0.38;59.48;99477.38;4983929;28;20117;-71
2022/11/22 08:26:16;;;;;;;40.40;13.63;;;;;;;-0.23;59.25;99474.56;4987817;28;20038;-70
2022/11/22 08:28:43;;;;;;;27.73;12.55;;;;;;;-0.05;58.94;99477.66;4998770;28;20162;-70
2022/11/22 08:31:14;;;;;;;31.35;13.25;;;;;;;-0.20;59.26;99482.19;4988750;28;20061;-71
2022/11/22 08:33:40;;;;;;;36.17;14.32;;;;;;;-0.40;59.55;99479.97;4989341;28;20103;-71
2022/11/22 08:36:06;;;;;;;40.55;14.18;;;;;;;-0.21;59.48;99488.22;5008902;28;20121;-71
2022/11/22 08:38:31;;;;;;;31.42;14.23;;;;;;;0.15;58.36;99493.53;4990476;28;20747;-70
2022/11/22 08:40:57;;;;;;;32.92;13.50;;;;;;;0.05;58.46;99497.16;5013014;28;20549;-70
2022/11/22 08:43:23;;;;;;;35.83;14.55;;;;;;;-0.07;59.08;99497.41;5008050;28;20038;-71
2022/11/22 08:45:56;;;;;;;40.97;15.60;;;;;;;-0.22;59.53;99499.34;5002633;28;20033;-70
2022/11/22 08:48:23;;;;;;;37.67;15.75;;;;;;;-0.09;59.25;99510.25;5003230;28;20047;-69
2022/11/22 08:50:54;;;;;;;38.63;12.35;;;;;;;0.13;58.81;99509.88;4989323;28;20580;-70
2022/11/22 08:53:20;;;;;;;37.65;14.10;;;;;;;0.13;58.83;99507.31;5004349;28;20054;-72
2022/11/22 08:55:46;;;;;;;34.58;13.35;;;;;;;0.34;58.59;99511.16;5001412;28;20040;-70
2022/11/22 08:58:11;;;;;;;41.15;14.32;;;;;;;0.23;58.70;99504.53;5003181;28;20033;-70
2022/11/22 09:00:36;;;;;;;33.22;14.52;;;;;;;0.41;58.21;99511.03;5004993;28;20373;-71
2022/11/22 09:03:02;;;;;;;30.15;12.15;;;;;;;0.75;57.08;99520.63;5004424;28;20050;-72
2022/11/22 09:05:30;;;;;;;35.38;14.13;;;;;;;0.62;57.64;99525.19;5007913;28;20024;-71
2022/11/22 09:07:56;;;;;;;35.13;14.25;;;;;;;0.60;57.87;99529.50;5003169;28;20049;-72
2022/11/22 09:10:21;;;;;;;29.75;13.15;;;;;;;0.52;57.98;99533.94;5003075;28;20030;-70
2022/11/22 09:12:49;;;;;;;34.70;12.18;;;;;;;0.65;57.85;99527.66;4999700;28;20105;-70
2022/11/22 09:15:15;;;;;;;33.38;12.13;;;;;;;0.65;57.97;99524.25;5003991;28;20038;-71
2022/11/22 09:17:44;;;;;;;45.25;14.48;;;;;;;0.76;57.54;99519.75;5003029;28;20093;-71
2022/11/22 09:20:10;;;;;;;32.42;13.13;;;;;;;0.95;57.26;99527.06;5002498;28;20825;-70
2022/11/22 09:22:37;;;;;;;39.38;15.77;;;;;;;0.93;57.19;99527.09;5002317;28;20731;-71
2022/11/22 09:25:04;;;;;;;28.20;11.45;;;;;;;1.08;57.15;99526.78;5006327;28;20061;-72
2022/11/22 09:27:31;;;;;;;28.00;12.10;;;;;;;0.69;58.24;99513.88;5000076;28;20080;-69
2022/11/22 09:29:59;;;;;;;26.40;12.05;;;;;;;0.86;57.68;99507.53;5003135;28;20240;-68
2022/11/22 09:32:24;;;;;;;28.40;12.45;;;;;;;0.91;57.52;99510.84;4987965;28;20107;-64
2022/11/22 09:34:50;;;;;;;38.03;14.40;;;;;;;1.02;57.17;99514.03;4985475;28;20030;-65
2022/11/22 09:37:18;;;;;;;35.38;14.38;;;;;;;0.86;57.59;99507.53;4972887;28;20042;-65
2022/11/22 09:39:47;;;;;;;39.60;14.55;;;;;;;0.81;57.70;99514.50;4971867;28;20061;-67
2022/11/22 09:42:32;;;;;;;32.95;12.15;;;;;;;1.08;57.21;99526.78;4989449;28;20091;-67
2022/11/22 09:45:29;;;;;;;41.35;14.75;;;;;;;0.92;57.90;99521.97;4985945;28;20038;-67
2022/11/22 09:48:07;;;;;;;31.50;13.18;;;;;;;0.81;58.45;99527.34;4974685;28;20229;-64
2022/11/22 09:50:47;;;;;;;31.45;12.85;;;;;;;1.09;57.40;99531.03;4984738;28;20030;-65
2022/11/22 09:53:17;;;;;;;35.20;14.57;;;;;;;1.03;57.91;99535.47;4986433;28;20042;-67
2022/11/22 09:55:50;;;;;;;34.63;13.93;;;;;;;1.10;57.89;99531.88;4983410;28;20073;-66
2022/11/22 09:58:32;;;;;;;34.70;13.20;;;;;;;1.21;57.65;99527.31;4984856;28;20076;-67
2022/11/22 10:01:41;;;;;;;32.05;14.05;;;;;;;1.31;57.49;99541.69;4988831;28;20042;-68
2022/11/22 10:04:20;;;;;;;29.33;12.50;;;;;;;1.59;56.88;99538.47;4982471;28;20049;-67
2022/11/22 10:06:52;;;;;;;36.05;13.07;;;;;;;1.72;56.49;99534.72;4987469;28;20133;-67
2022/11/22 10:09:35;;;;;;;28.15;12.52;;;;;;;1.67;56.92;99533.16;4989635;28;20888;-67
2022/11/22 10:12:18;;;;;;;29.30;11.88;;;;;;;1.75;56.28;99538.94;4991989;28;20510;-68
2022/11/22 10:14:46;;;;;;;32.95;13.35;;;;;;;1.74;56.70;99542.41;4985626;28;20131;-67
2022/11/22 10:17:24;;;;;;;34.90;13.75;;;;;;;1.88;56.46;99532.59;4987501;28;20613;-67
2022/11/22 10:20:03;;;;;;;38.70;13.95;;;;;;;1.55;56.80;99546.31;4984128;28;20030;-68
2022/11/22 10:22:29;;;;;;;31.65;13.73;;;;;;;1.84;57.06;99548.19;4989426;28;20192;-68
2022/11/22 10:24:58;;;;;;;26.85;12.93;;;;;;;2.10;56.21;99542.38;4988320;28;20115;-67
2022/11/22 10:27:32;;;;;;;30.52;12.73;;;;;;;1.93;56.49;99545.41;4984337;28;20046;-64
2022/11/22 10:30:12;;;;;;;29.25;12.45;;;;;;;2.01;56.34;99552.91;4981297;28;20128;-67
2022/11/22 10:33:16;;;;;;;27.60;12.60;;;;;;;1.97;56.36;99559.03;4988149;28;20577;-67
2022/11/22 10:36:22;;;;;;;27.13;11.25;;;;;;;2.00;56.42;99551.22;5005800;28;20533;-66
2022/11/22 10:38:53;;;;;;;25.85;12.13;;;;;;;1.94;56.54;99542.75;4966104;28;20531;-69
2022/11/22 10:41:42;;;;;;;29.70;13.40;;;;;;;2.08;55.82;99533.81;5002081;28;20471;-65
2022/11/22 10:44:13;;;;;;;29.60;14.63;;;;;;;2.19;56.13;99536.97;4990477;28;20541;-68
2022/11/22 10:47:05;;;;;;;28.95;13.88;;;;;;;2.30;55.50;99537.53;4985996;28;20037;-67
2022/11/22 10:50:05;;;;;;;25.25;12.35;;;;;;;2.10;56.21;99542.38;4951220;28;20072;-68
2022/11/22 10:52:59;;;;;;;27.08;13.02;;;;;;;2.33;55.88;99537.47;4966625;28;20053;-70
2022/11/22 10:55:52;;;;;;;36.55;14.10;;;;;;;2.41;56.20;99541.56;5004259;28;20048;-68
2022/11/22 10:58:43;;;;;;;28.55;12.23;;;;;;;2.25;56.06;99546.28;4986111;28;20139;-70
2022/11/22 11:01:31;;;;;;;28.50;13.30;;;;;;;2.31;56.44;99546.09;4978003;28;20120;-69
2022/11/22 11:04:02;;;;;;;29.30;11.93;;;;;;;2.68;55.51;99548.50;4984608;28;20052;-72
2022/11/22 11:06:34;;;;;;;21.55;8.90;;;;;;;2.40;56.32;99539.84;4993901;28;20029;-72
2022/11/22 11:09:11;;;;;;;31.30;13.60;;;;;;;2.51;56.31;99542.97;4974170;28;20044;-73
2022/11/22 11:11:40;;;;;;;25.50;12.50;;;;;;;2.60;55.98;99547.91;5009213;28;20115;-75
2022/11/22 11:14:25;;;;;;;28.20;13.07;;;;;;;2.33;56.64;99544.31;4980551;28;20647;-70
2022/11/22 11:16:54;;;;;;;25.80;11.82;;;;;;;2.55;56.17;99548.03;4987032;28;20096;-69
2022/11/22 11:19:22;;;;;;;22.50;11.60;;;;;;;2.67;55.89;99549.41;4988598;28;20037;-68
2022/11/22 11:21:59;;;;;;;29.70;11.77;;;;;;;2.76;55.63;99543.16;4982157;28;20029;-70
2022/11/22 11:24:28;;;;;;;30.50;11.13;;;;;;;2.86;54.88;99539.38;4991380;28;20040;-69
2022/11/22 11:26:59;;;;;;;26.73;11.90;;;;;;;2.86;55.53;99543.72;4991006;28;20122;-68
2022/11/22 11:29:32;;;;;;;29.65;14.07;;;;;;;2.74;55.80;99544.91;4996260;28;20108;-67
2022/11/22 11:32:10;;;;;;;29.00;12.07;;;;;;;2.82;55.32;99542.94;5004392;28;20044;-69
2022/11/22 11:34:37;;;;;;;23.20;12.15;;;;;;;2.79;56.06;99545.63;5007474;28;20110;-67
2022/11/22 11:37:08;;;;;;;24.40;11.80;;;;;;;2.94;55.36;99536.59;5007870;28;20147;-67
2022/11/22 11:39:34;;;;;;;20.25;7.72;;;;;;;3.07;55.16;99540.50;4988628;28;20037;-66
2022/11/22 11:42:19;;;;;;;20.95;10.75;;;;;;;2.83;55.93;99538.66;5001143;28;20079;-67
2022/11/22 11:44:45;;;;;;;26.65;11.00;;;;;;;3.12;55.15;99536.03;5004586;28;20116;-68